HFA weather

Haifa International Airport
Haifa, Haifa District, Israel

Public forecast

Using degrees Celsius for public forecast. Weather courtesy of forecast.io.

METAR (pilot weather report)

Report is more than 6 hours old.

Retrieved 2019/05/22 16:50 UTC (10 hours ago):

LLHA 221650Z 31007KT CAVOK 27/15 Q1014

TAF (pilot weather forecast)

Forecast is more than 12 hours old.

Retrieved 2019/05/22 00:00 UTC (1 day ago):

TAF LLHA 222302Z 2300/2324 14006KT CAVOK PROB30 2303/2305 5000 FU BECMG 2309/2311 34008KT BECMG 2313/2316 14006KT TX36/2311Z TN22/2303Z